Norfolk, NE

4:29 PM CDT on August 22, 2014 (GMT -0500)
West Central - Norfolk | Change Station
CLOSE
Current Station
Personal Weather Station
Location: Norfolk, NE
Elevation: 1640 ft
Nearby Weather Stations

Elev 1640 ft 42.04 °N, 97.45 °W | Updated 4 minutes ago

Partly Cloudy
Partly Cloudy
86.0 °F
Feels Like 90 °F
N
1.0
Wind Variable Wind from NE
Gusts 8.0 mph

Today
High -- | Low -- °F
--% Chance of Precip.
Yesterday
High -- | Low -- °F
Precip. -- in
6:44 AM 8:19 PM
Waning Crescent, 6% visible
Pressure 29.89 in
Visibility 10.0 miles
Clouds Few 3600 ft
Heat Index 90 °F
Dew Point 69 °F
Humidity 57%
Rainfall 0.00 in
Snow Depth Not available.
UV 6 out of 12
Pollen 9.60 out of 12
Air Quality Not available.
Flu Activity Not available.
METAR KOFK 222056Z AUTO 06008KT 10SM FEW036 31/21 A2994 RMK AO2 SLP122 T03110211 55004

More Conditions Fewer Conditions

Pressure 29.89 in
Visibility 10.0 miles
Clouds Few 3600 ft
Heat Index 90 °F
Dew Point 69 °F
Humidity 57%
Rainfall 0.00 in
Snow Depth Not available.
UV 6 out of 12
Pollen 9.60 out of 12
Air Quality Not available.
Flu Activity Not available.
METAR KOFK 222056Z AUTO 06008KT 10SM FEW036 31/21 A2994 RMK AO2 SLP122 T03110211 55004

More Conditions Fewer Conditions

10-Day Weather Forecast

Almanac

Astronomy

Aug. 22, 2014 Rise Set
Actual Time 6:44 AM CDT 8:19 PM CDT
Civil Twilight 6:15 AM CDT 8:48 PM CDT
Nautical Twilight 5:39 AM CDT 9:24 PM CDT
Astronomical Twilight 5:01 AM CDT 10:02 PM CDT
Moon 4:07 AM CDT 6:29 PM CDT
Length of Visible Light 14h 33m
Length of Day
13h 34m
Tomorrow will be 2m 37s shorter.
Waning Crescent, 6% of the Moon is Illuminated
Today
Waning Crescent
Aug 25
New
Sep 2
First Quarter
Sep 8
Full
Sep 15
Last Quarter

Today's Extremes

State Highs State Lows

Community

WunderPhotos

Upload Photos

1,746,254 photos uploaded!

Nearby

Snow Depth

Station Depth Elevation
No new snow has been reported.

Earthquake Activity

City Distance Mag. Time & Date
No recent earthquake activity has been reported nearby.
Minimum magnitude displayed is 2.5.

Coastal Water Temperatures

Place Temperature
No Stations Reporting

Nearby Weather Stations